Flight Track Log - Related Links

Times and Time Zones

All times are in EDT time to prevent confusion due to time zone crossing. See the TAM3821 flight status page for this flight to view local times or setup timezone preferences in your user account.

Time Position Orientation Groundspeed Altitude Reporting Facility
EDT Latitude Longitude Course Direction KTS MPH feet Rate Location/Type
Sun 09:01:00 AM -17.6297 -46.7684 148° Southeast  Level Estimated
Sun 09:02:00 AM -17.7063 -46.7181 148° Southeast  Level Estimated
Sun 09:03:00 AM -17.7830 -46.6679 148° Southeast  Level Estimated
Sun 09:04:00 AM -17.8597 -46.6175 148° Southeast  Level Estimated
Sun 09:05:00 AM -17.9363 -46.5672 148° Southeast  Level Estimated
Sun 09:06:00 AM -18.0129 -46.5167 148° Southeast  Level Estimated
Sun 09:07:00 AM -18.0896 -46.4663 148° Southeast  Level Estimated
Sun 09:08:00 AM -18.1661 -46.4158 148° Southeast  Level Estimated
Sun 09:09:00 AM -18.2427 -46.3652 148° Southeast  Level Estimated
Sun 09:10:00 AM -18.3193 -46.3146 148° Southeast  Level Estimated
Sun 09:11:00 AM -18.3959 -46.2640 148° Southeast  Level Estimated
Sun 09:12:00 AM -18.4724 -46.2133 148° Southeast  Level Estimated
Sun 09:13:00 AM -18.5490 -46.1626 148° Southeast  Level Estimated
Sun 09:14:00 AM -18.6255 -46.1118 148° Southeast  Level Estimated
Sun 09:15:00 AM -18.7020 -46.0610 148° Southeast  Level Estimated
Sun 09:16:00 AM -18.7785 -46.0101 148° Southeast  Level Estimated
Sun 09:17:00 AM -18.8550 -45.9592 148° Southeast  Level Estimated
Sun 09:18:00 AM -18.9314 -45.9082 148° Southeast  Level Estimated
Sun 09:19:00 AM -19.0079 -45.8572 148° Southeast  Level Estimated
Sun 09:20:00 AM -19.0844 -45.8062 148° Southeast  Level Estimated
Sun 09:21:00 AM -19.1608 -45.7551 148° Southeast  Level Estimated
Sun 09:22:00 AM -19.2372 -45.7039 148° Southeast  Level Estimated
Sun 09:23:00 AM -19.3136 -45.6527 148° Southeast  Level Estimated
Sun 09:24:00 AM -19.3900 -45.6015 148° Southeast  Level Estimated
Sun 09:25:00 AM -19.4663 -45.5502 148° Southeast  Level Estimated
Sun 09:26:00 AM -19.5427 -45.4989 148° Southeast  Level Estimated
Sun 09:27:00 AM -19.6190 -45.4475 148° Southeast  Level Estimated
Sun 09:28:00 AM -19.6954 -45.3960 148° Southeast  Level Estimated
Sun 09:29:00 AM -19.7717 -45.3445 148° Southeast  Level Estimated
Sun 09:30:00 AM -19.8480 -45.2930 148° Southeast  Level Estimated
Sun 09:31:00 AM -19.9243 -45.2414 148° Southeast  Level Estimated
Sun 09:32:00 AM -20.0005 -45.1898 148° Southeast  Level Estimated
Sun 09:33:00 AM -20.0768 -45.1381 148° Southeast  Level Estimated
Sun 09:34:00 AM -20.1530 -45.0864 148° Southeast  Level Estimated
Sun 09:35:00 AM -20.2292 -45.0346 147° Southeast  Level Estimated
Sun 09:36:00 AM -20.3055 -44.9827 147° Southeast  Level Estimated
Sun 09:37:00 AM -20.3816 -44.9308 147° Southeast  Level Estimated
Sun 09:38:00 AM -20.4578 -44.8789 147° Southeast  Level Estimated
Sun 09:39:00 AM -20.5340 -44.8269 147° Southeast  Level Estimated
Sun 09:40:00 AM -20.6101 -44.7749 147° Southeast  Level Estimated
Sun 09:41:00 AM -20.6863 -44.7228 147° Southeast  Level Estimated
Sun 09:42:00 AM -20.7624 -44.6706 147° Southeast  Level Estimated
Sun 09:43:00 AM -20.8385 -44.6184 147° Southeast  Level Estimated
Sun 09:44:00 AM -20.9146 -44.5662 147° Southeast  Level Estimated
Sun 09:45:00 AM -20.9906 -44.5139 147° Southeast  Level Estimated
Sun 09:46:00 AM -21.0667 -44.4615 147° Southeast  Level Estimated
Sun 09:47:00 AM -21.1427 -44.4091 147° Southeast  Level Estimated
Sun 09:48:00 AM -21.2187 -44.3566 147° Southeast  Level Estimated
Sun 09:49:00 AM -21.2947 -44.3041 147° Southeast  Level Estimated
Sun 09:50:00 AM -21.3707 -44.2515 147° Southeast  Level Estimated
Sun 09:51:00 AM -21.4467 -44.1989 147° Southeast  Level Estimated
Sun 09:52:00 AM -21.5226 -44.1462 147° Southeast  Level Estimated
Sun 09:53:00 AM -21.5986 -44.0935 147° Southeast  Level Estimated
Sun 09:54:00 AM -21.6745 -44.0407 147° Southeast  Level Estimated
Sun 09:55:00 AM -21.7504 -43.9879 147° Southeast  Level Estimated
Sun 09:56:00 AM -21.8263 -43.9350 147° Southeast  Level Estimated
Sun 09:57:00 AM -21.9022 -43.8820 147° Southeast  Level Estimated
Sun 09:58:00 AM -21.9780 -43.8290 147° Southeast  Level Estimated
Sun 09:59:00 AM -22.0539 -43.7759 147° Southeast  Level Estimated
Sun 10:00:00 AM -22.1297 -43.7228 147° Southeast  Level Estimated
Sun 10:01:00 AM -22.2055 -43.6696 147° Southeast  Level Estimated
Sun 10:02:00 AM -22.2812 -43.6163 147° Southeast  Level Estimated
Sun 10:03:00 AM -22.3570 -43.5630 147° Southeast  Level Estimated
Sun 10:04:00 AM -22.4328 -43.5097 147° Southeast  Level Estimated
Sun 10:05:00 AM -22.5085 -43.4562 147° Southeast  Level Estimated
Sun 10:06:00 AM -22.5842 -43.4028 147° Southeast  Level Estimated
Sun 10:07:00 AM -22.6599 -43.3492 147° Southeast  Level Estimated
Sun 10:08:00 AM -22.7356 -43.2956 147° Southeast  Level Estimated
Sun 10:09:00 AM -22.8089 -43.2436 147° Southeast  Level Estimated
Sun 10:10:00 AM -22.8089 -43.2436 137° Southeast  Level Estimated
Sun 10:11:00 AM -22.8089 -43.2436 137° Southeast  Level Estimated
Sun 10:12:00 AM -22.8089 -43.2436 137° Southeast  Level Estimated
Sun 10:13:00 AM -22.8089 -43.2436 137° Southeast  Level Estimated
Sun 10:14:00 AM -22.8089 -43.2436 137° Southeast  Level Estimated
Sun 10:15:00 AM -22.8089 -43.2436 137° Southeast  Level Estimated
Sun 10:16:00 AM -22.8089 -43.2436 137° Southeast  Level Estimated
Sun 10:17:00 AM -22.8089 -43.2436 137° Southeast  Level Estimated
Sun 10:18:00 AM -22.8089 -43.2436 137° Southeast  Level Estimated

Login

Don't have an account? Register now (free) for customized features, flight alerts, and more!